createdAt,value
2022-09-23T00:01:27.963Z,5.65
2022-09-23T00:03:56.442Z,5.85
2022-09-23T00:06:24.756Z,5.57
2022-09-23T00:08:52.680Z,5.07
2022-09-23T00:11:21.253Z,5.25
2022-09-23T00:13:50.406Z,6.00
2022-09-23T00:16:19.273Z,5.55
2022-09-23T00:18:49.620Z,5.32
2022-09-23T00:21:17.991Z,5.97
2022-09-23T00:23:45.898Z,5.88
2022-09-23T00:26:15.880Z,5.53
2022-09-23T00:28:44.301Z,5.35
2022-09-23T00:31:14.147Z,6.25
2022-09-23T00:33:41.974Z,5.75
2022-09-23T00:36:12.150Z,5.55
2022-09-23T00:38:40.017Z,6.10
2022-09-23T00:41:08.026Z,5.40
2022-09-23T00:43:40.078Z,6.10
2022-09-23T00:46:09.083Z,5.47
2022-09-23T00:48:37.999Z,6.20
2022-09-23T00:51:06.265Z,6.13
2022-09-23T00:53:35.625Z,5.82
2022-09-23T00:56:07.297Z,7.38
2022-09-23T00:58:35.610Z,5.95
2022-09-23T01:01:03.764Z,5.78
2022-09-23T01:03:31.790Z,6.47
2022-09-23T01:05:59.592Z,6.90
2022-09-23T01:08:28.167Z,6.50
2022-09-23T01:11:04.371Z,7.18
2022-09-23T01:13:35.181Z,5.97
2022-09-23T01:16:06.883Z,6.85
2022-09-23T01:18:40.009Z,6.43
2022-09-23T01:21:16.758Z,7.95
2022-09-23T01:24:06.552Z,7.05
2022-09-23T01:26:49.324Z,6.82
2022-09-23T01:29:31.064Z,7.10
2022-09-23T01:32:02.998Z,6.63
2022-09-23T01:34:35.060Z,7.40
2022-09-23T01:37:07.194Z,7.32
2022-09-23T01:39:36.908Z,7.72
2022-09-23T01:42:07.586Z,6.78
2022-09-23T01:44:39.222Z,7.15
2022-09-23T01:47:11.848Z,6.38
2022-09-23T01:49:42.980Z,6.28
2022-09-23T01:52:14.820Z,6.40
2022-09-23T01:54:45.477Z,6.50
2022-09-23T01:57:16.186Z,6.47
2022-09-23T01:59:47.269Z,7.07
2022-09-23T02:02:19.424Z,6.32
2022-09-23T02:04:49.435Z,6.07
2022-09-23T02:07:20.359Z,5.85
2022-09-23T02:09:52.734Z,5.63
2022-09-23T02:12:22.275Z,6.00
2022-09-23T02:14:51.679Z,5.63
2022-09-23T02:17:24.141Z,6.03
2022-09-23T02:19:53.003Z,5.68
2022-09-23T02:22:22.148Z,5.53
2022-09-23T02:24:50.022Z,5.28
2022-09-23T02:27:21.669Z,5.50
2022-09-23T02:29:54.594Z,5.22
2022-09-23T02:32:24.800Z,4.68
2022-09-23T02:34:58.692Z,5.65
2022-09-23T02:37:28.825Z,5.60
2022-09-23T02:40:01.232Z,5.35
2022-09-23T02:42:32.201Z,5.82
2022-09-23T02:44:59.924Z,5.32
2022-09-23T02:47:31.378Z,5.35
2022-09-23T02:49:59.073Z,6.28
2022-09-23T02:52:27.092Z,5.40
2022-09-23T02:54:54.796Z,4.72
2022-09-23T02:57:22.507Z,5.30
2022-09-23T02:59:50.831Z,5.32
2022-09-23T03:02:42.167Z,5.05
2022-09-23T03:05:19.044Z,4.35
2022-09-23T03:07:50.824Z,5.60
2022-09-23T03:10:22.108Z,5.35
2022-09-23T03:12:53.045Z,5.47
2022-09-23T03:15:24.343Z,5.60
2022-09-23T03:17:56.844Z,4.88
2022-09-23T03:20:27.892Z,5.38
2022-09-23T03:22:58.065Z,5.88
2022-09-23T03:25:26.562Z,5.25
2022-09-23T03:27:57.096Z,5.07
2022-09-23T03:30:26.263Z,5.07
2022-09-23T03:32:56.171Z,5.60
2022-09-23T03:35:25.176Z,5.60
2022-09-23T03:37:56.556Z,6.32
2022-09-23T03:40:26.066Z,5.45
2022-09-23T03:42:56.213Z,5.32
2022-09-23T03:45:27.551Z,5.65
2022-09-23T03:47:56.665Z,6.13
2022-09-23T03:50:24.488Z,5.90
2022-09-23T03:52:52.133Z,4.95
2022-09-23T03:55:20.413Z,5.35
2022-09-23T03:57:48.006Z,8.10
2022-09-23T04:00:16.335Z,4.47
2022-09-23T04:02:44.253Z,6.57
2022-09-23T04:05:13.890Z,4.88
2022-09-23T04:07:41.522Z,5.18
2022-09-23T04:10:10.819Z,5.75
2022-09-23T04:12:38.574Z,4.50
2022-09-23T04:15:06.805Z,5.22
2022-09-23T04:17:34.424Z,4.65
2022-09-23T04:20:02.214Z,5.53
2022-09-23T04:22:31.366Z,5.22
2022-09-23T04:24:58.988Z,4.30
2022-09-23T04:27:26.662Z,5.57
2022-09-23T04:29:54.282Z,4.75
2022-09-23T04:32:37.421Z,5.20
2022-09-23T04:35:05.453Z,5.22
2022-09-23T04:37:34.433Z,4.88
2022-09-23T04:40:02.327Z,5.60
2022-09-23T04:42:30.758Z,5.00
2022-09-23T04:44:58.844Z,5.53
2022-09-23T04:47:26.474Z,6.05
2022-09-23T04:49:59.052Z,5.53
2022-09-23T04:52:27.586Z,6.38
2022-09-23T04:54:56.583Z,5.75
2022-09-23T04:57:24.647Z,5.68
2022-09-23T04:59:54.598Z,5.80
2022-09-23T05:02:22.840Z,5.88
2022-09-23T05:05:11.319Z,5.75
2022-09-23T05:07:39.568Z,6.45
2022-09-23T05:10:09.341Z,5.90
2022-09-23T05:12:36.957Z,6.05
2022-09-23T05:15:05.221Z,6.95
2022-09-23T05:17:32.944Z,5.25
2022-09-23T05:20:00.926Z,5.53
2022-09-23T05:22:30.690Z,6.13
2022-09-23T05:24:59.908Z,6.22
2022-09-23T05:27:28.902Z,6.40
2022-09-23T05:29:56.609Z,6.78
2022-09-23T05:32:24.443Z,8.35
2022-09-23T05:34:55.228Z,9.27
2022-09-23T05:37:23.293Z,7.07
2022-09-23T05:39:50.881Z,6.40
2022-09-23T05:42:20.638Z,6.43
2022-09-23T05:44:49.605Z,6.25
2022-09-23T05:47:17.168Z,5.80
2022-09-23T05:49:59.206Z,5.45
2022-09-23T05:52:27.876Z,6.20
2022-09-23T05:54:55.509Z,5.63
2022-09-23T05:57:23.111Z,5.07
2022-09-23T05:59:52.157Z,5.13
2022-09-23T06:02:20.061Z,5.68
2022-09-23T06:04:47.808Z,5.18
2022-09-23T06:07:15.412Z,5.70
2022-09-23T06:09:43.379Z,5.22
2022-09-23T06:12:11.012Z,4.80
2022-09-23T06:14:38.668Z,5.40
2022-09-23T06:17:07.802Z,5.03
2022-09-23T06:19:35.499Z,5.18
2022-09-23T06:22:03.624Z,5.45
2022-09-23T06:24:34.035Z,5.72
2022-09-23T06:27:02.708Z,5.03
2022-09-23T06:29:32.364Z,5.57
2022-09-23T06:32:00.249Z,5.15
2022-09-23T06:34:30.054Z,6.18
2022-09-23T06:37:00.077Z,5.45
2022-09-23T06:39:30.190Z,5.85
2022-09-23T06:41:58.055Z,4.95
2022-09-23T06:44:25.665Z,5.40
2022-09-23T06:46:53.425Z,4.68
2022-09-23T06:49:21.659Z,4.90
2022-09-23T06:51:50.980Z,4.75
2022-09-23T06:54:18.623Z,5.60
2022-09-23T06:56:47.564Z,4.97
2022-09-23T06:59:17.058Z,5.03
2022-09-23T07:01:45.596Z,5.28
2022-09-23T07:04:13.266Z,5.80
2022-09-23T07:06:41.180Z,5.43
2022-09-23T07:09:11.164Z,5.80
2022-09-23T07:11:39.813Z,4.68
2022-09-23T07:14:07.458Z,5.80
2022-09-23T07:16:35.103Z,4.70
2022-09-23T07:19:02.844Z,5.90
2022-09-23T07:21:30.529Z,4.93
2022-09-23T07:23:58.296Z,5.20
2022-09-23T07:26:27.637Z,5.88
2022-09-23T07:28:56.743Z,4.80
2022-09-23T07:31:37.165Z,5.07
2022-09-23T07:34:07.640Z,5.05
2022-09-23T07:36:37.494Z,4.82
2022-09-23T07:39:05.829Z,5.70
2022-09-23T07:41:35.598Z,5.20
2022-09-23T07:44:03.774Z,5.30
2022-09-23T07:46:32.544Z,5.38
2022-09-23T07:49:00.451Z,5.57
2022-09-23T07:51:33.255Z,5.95
2022-09-23T07:54:03.460Z,5.75
2022-09-23T07:56:31.430Z,3.33
2022-09-23T07:59:04.244Z,2.85
2022-09-23T08:01:33.162Z,2.85
2022-09-23T08:04:02.082Z,2.17
2022-09-23T08:06:29.900Z,1.83
2022-09-23T08:08:58.396Z,1.98
2022-09-23T08:11:26.631Z,1.52
2022-09-23T08:13:54.669Z,1.60
2022-09-23T08:16:23.776Z,1.00
2022-09-23T08:18:51.458Z,1.10
2022-09-23T08:21:21.255Z,0.88
2022-09-23T08:23:48.952Z,1.00
2022-09-23T08:26:21.562Z,0.98
2022-09-23T08:28:50.058Z,1.43
2022-09-23T08:31:17.743Z,1.25
2022-09-23T08:33:46.771Z,1.88
2022-09-23T08:36:14.406Z,2.00
2022-09-23T08:38:42.224Z,2.55
2022-09-23T08:41:15.556Z,2.15
2022-09-23T08:43:46.019Z,2.08
2022-09-23T08:46:14.154Z,2.30
2022-09-23T08:48:43.896Z,1.52
2022-09-23T08:51:15.112Z,2.72
2022-09-23T08:53:43.141Z,2.08
2022-09-23T08:56:14.339Z,2.00
2022-09-23T08:58:47.267Z,2.03
2022-09-23T09:01:17.569Z,3.00
2022-09-23T09:03:47.104Z,2.60
2022-09-23T09:06:19.013Z,2.83
2022-09-23T09:08:48.182Z,3.28
2022-09-23T09:11:16.889Z,3.17
2022-09-23T09:13:49.067Z,3.53
2022-09-23T09:16:48.372Z,2.90
2022-09-23T09:19:19.103Z,3.15
2022-09-23T09:21:48.987Z,3.10
2022-09-23T09:24:20.756Z,3.55
2022-09-23T09:26:48.382Z,2.90
2022-09-23T09:29:34.361Z,2.58
2022-09-23T09:32:12.435Z,2.67
2022-09-23T09:34:41.928Z,3.13
2022-09-23T09:37:14.766Z,3.00
2022-09-23T09:39:42.947Z,3.33
2022-09-23T09:42:14.835Z,2.83
2022-09-23T09:44:45.047Z,2.70
2022-09-23T09:47:18.586Z,2.60
2022-09-23T09:49:47.884Z,2.60
2022-09-23T09:52:22.994Z,2.85
2022-09-23T09:54:51.409Z,2.53
2022-09-23T09:57:23.976Z,2.53
2022-09-23T09:59:51.599Z,2.17
2022-09-23T10:02:24.180Z,2.90
2022-09-23T10:05:00.467Z,3.20
2022-09-23T10:07:30.977Z,2.05
2022-09-23T10:10:28.867Z,1.83
2022-09-23T10:13:15.020Z,2.30
2022-09-23T10:15:45.226Z,1.70
2022-09-23T10:18:20.327Z,1.90
2022-09-23T10:20:49.493Z,1.90
2022-09-23T10:23:21.308Z,1.73
2022-09-23T10:25:57.444Z,2.22
2022-09-23T10:28:32.331Z,1.58
2022-09-23T10:31:07.471Z,1.73
2022-09-23T10:33:36.553Z,1.90
2022-09-23T10:36:04.467Z,2.00
2022-09-23T10:38:34.444Z,2.33
2022-09-23T10:41:21.100Z,1.63
2022-09-23T10:44:10.975Z,3.55
2022-09-23T10:46:42.457Z,1.70
2022-09-23T10:49:37.203Z,1.83
2022-09-23T10:52:12.298Z,2.25
2022-09-23T10:54:45.693Z,1.60
2022-09-23T10:57:40.631Z,1.67
2022-09-23T11:00:17.997Z,2.10
2022-09-23T11:02:56.269Z,2.17
2022-09-23T11:05:30.853Z,1.80
2022-09-23T11:08:03.507Z,2.13
2022-09-23T11:10:52.414Z,2.10
2022-09-23T11:13:25.396Z,2.50
2022-09-23T11:15:58.549Z,2.08
2022-09-23T11:18:34.830Z,2.13
2022-09-23T11:21:07.740Z,1.50
2022-09-23T11:23:47.441Z,1.33
2022-09-23T11:26:25.960Z,1.45
2022-09-23T11:29:05.472Z,1.77
2022-09-23T11:31:38.428Z,1.25
2022-09-23T11:34:14.272Z,1.20
2022-09-23T11:36:45.194Z,1.00
2022-09-23T11:39:15.636Z,1.00
2022-09-23T11:41:45.663Z,0.77
2022-09-23T11:44:16.075Z,1.33
2022-09-23T11:46:45.874Z,0.68
2022-09-23T11:49:16.318Z,0.60
2022-09-23T11:51:47.055Z,0.63
2022-09-23T11:54:20.531Z,0.90
2022-09-23T11:56:52.796Z,1.10
2022-09-23T11:59:35.850Z,0.70
2022-09-23T12:02:19.895Z,0.82
2022-09-23T12:04:57.544Z,0.50
2022-09-23T12:07:28.934Z,0.50
2022-09-23T12:09:59.933Z,0.43
2022-09-23T12:12:32.373Z,0.50
2022-09-23T12:15:03.510Z,0.77
2022-09-23T12:17:45.849Z,0.63
2022-09-23T12:20:28.245Z,0.60
2022-09-23T12:22:59.820Z,0.60
2022-09-23T12:25:34.836Z,0.50
2022-09-23T12:28:06.610Z,0.70
2022-09-23T12:30:35.741Z,0.65
2022-09-23T12:33:11.845Z,0.80
2022-09-23T12:35:42.352Z,0.65
2022-09-23T12:38:13.838Z,0.68
2022-09-23T12:40:44.713Z,0.60
2022-09-23T12:43:20.893Z,0.80
2022-09-23T12:45:48.627Z,1.00
2022-09-23T12:48:43.457Z,0.70
2022-09-23T12:51:15.901Z,1.10
2022-09-23T12:53:54.203Z,0.68
2022-09-23T12:56:23.489Z,0.70
2022-09-23T12:59:03.220Z,1.02
2022-09-23T13:01:37.605Z,0.70
2022-09-23T13:04:44.473Z,0.88
2022-09-23T13:07:23.401Z,1.92
2022-09-23T13:09:52.095Z,0.80
2022-09-23T13:12:21.506Z,0.80
2022-09-23T13:14:51.463Z,0.60
2022-09-23T13:17:27.653Z,0.90
2022-09-23T13:20:05.302Z,0.85
2022-09-23T13:23:01.373Z,0.93
2022-09-23T13:25:30.065Z,1.33
2022-09-23T13:28:00.334Z,0.95
2022-09-23T13:30:28.006Z,0.77
2022-09-23T13:33:02.496Z,0.82
2022-09-23T13:35:33.397Z,0.90
2022-09-23T13:38:10.222Z,0.88
2022-09-23T13:40:38.766Z,1.20
2022-09-23T13:43:07.682Z,1.00
2022-09-23T13:45:38.546Z,1.05
2022-09-23T13:48:07.511Z,1.48
2022-09-23T13:50:38.461Z,1.27
2022-09-23T13:53:09.790Z,1.48
2022-09-23T13:55:42.098Z,1.20
2022-09-23T13:58:18.566Z,1.63
2022-09-23T14:00:46.603Z,1.60
2022-09-23T14:03:17.920Z,2.13
2022-09-23T14:05:46.118Z,1.48
2022-09-23T14:08:15.281Z,1.55
2022-09-23T14:10:46.184Z,1.52
2022-09-23T14:13:21.353Z,1.23
2022-09-23T14:15:54.895Z,1.42
2022-09-23T14:18:29.465Z,1.60
2022-09-23T14:20:57.192Z,1.60
2022-09-23T14:23:26.170Z,1.42
2022-09-23T14:25:54.155Z,1.50
2022-09-23T14:28:23.749Z,1.45
2022-09-23T14:30:52.564Z,1.38
2022-09-23T14:33:23.001Z,1.20
2022-09-23T14:35:52.385Z,1.90
2022-09-23T14:38:43.201Z,2.10
2022-09-23T14:41:21.930Z,1.48
2022-09-23T14:43:51.791Z,1.52
2022-09-23T14:46:20.340Z,2.05
2022-09-23T14:49:06.080Z,1.83
2022-09-23T14:51:36.479Z,2.03
2022-09-23T14:54:23.661Z,2.05
2022-09-23T14:56:57.879Z,2.22
2022-09-23T14:59:27.382Z,2.00
2022-09-23T15:01:57.491Z,2.35
2022-09-23T15:04:32.664Z,2.40
2022-09-23T15:07:04.569Z,2.58
2022-09-23T15:09:38.560Z,2.72
2022-09-23T15:12:08.756Z,2.40
2022-09-23T15:14:39.490Z,2.65
2022-09-23T15:17:15.885Z,2.70
2022-09-23T15:19:43.725Z,2.58
2022-09-23T15:22:13.169Z,2.53
2022-09-23T15:24:44.978Z,2.53
2022-09-23T15:27:23.801Z,2.47
2022-09-23T15:29:52.981Z,2.20
2022-09-23T15:32:20.865Z,2.33
2022-09-23T15:34:49.843Z,2.45
2022-09-23T15:37:17.841Z,2.28
2022-09-23T15:39:45.509Z,2.45
2022-09-23T15:42:15.106Z,2.28
2022-09-23T15:44:42.784Z,2.17
2022-09-23T15:47:14.060Z,2.60
2022-09-23T15:49:41.802Z,2.78
2022-09-23T15:52:12.299Z,2.03
2022-09-23T15:54:40.258Z,2.00
2022-09-23T15:57:07.880Z,2.90
2022-09-23T15:59:38.500Z,2.10
2022-09-23T16:02:08.890Z,2.20
2022-09-23T16:04:37.154Z,2.25
2022-09-23T16:07:05.706Z,2.10
2022-09-23T16:09:33.368Z,3.03
2022-09-23T16:12:02.803Z,2.38
2022-09-23T16:14:30.390Z,2.22
2022-09-23T16:16:59.456Z,2.40
2022-09-23T16:19:27.090Z,2.75
2022-09-23T16:21:54.755Z,3.58
2022-09-23T16:24:27.355Z,2.63
2022-09-23T16:26:59.957Z,3.17
2022-09-23T16:29:28.030Z,2.33
2022-09-23T16:31:56.051Z,2.63
2022-09-23T16:34:25.171Z,2.65
2022-09-23T16:36:52.980Z,3.00
2022-09-23T16:39:22.842Z,2.85
2022-09-23T16:41:50.468Z,2.30
2022-09-23T16:44:18.159Z,2.30
2022-09-23T16:46:46.082Z,3.25
2022-09-23T16:49:16.314Z,3.33
2022-09-23T16:51:45.420Z,3.40
2022-09-23T16:54:14.329Z,3.88
2022-09-23T16:56:51.501Z,4.22
2022-09-23T16:59:19.236Z,3.72
2022-09-23T17:02:04.526Z,3.97
2022-09-23T17:04:32.352Z,4.35
2022-09-23T17:07:01.494Z,4.35
2022-09-23T17:09:30.302Z,4.80
2022-09-23T17:11:59.970Z,5.40
2022-09-23T17:14:31.201Z,5.43
2022-09-23T17:16:58.997Z,4.95
2022-09-23T17:19:27.116Z,4.70
2022-09-23T17:21:54.865Z,6.60
2022-09-23T17:24:23.858Z,5.28
2022-09-23T17:26:53.219Z,5.38
2022-09-23T17:29:21.400Z,4.95
2022-09-23T17:31:51.207Z,4.97
2022-09-23T17:34:19.821Z,4.75
2022-09-23T17:36:48.140Z,5.38
2022-09-23T17:39:16.242Z,4.70
2022-09-23T17:41:45.717Z,4.65
2022-09-23T17:44:14.385Z,4.57
2022-09-23T17:46:42.418Z,4.35
2022-09-23T17:49:10.307Z,4.80
2022-09-23T17:51:38.264Z,5.13
2022-09-23T17:54:12.149Z,4.78
2022-09-23T17:56:40.627Z,4.68
2022-09-23T17:59:11.260Z,4.70
2022-09-23T18:01:39.054Z,5.45
2022-09-23T18:04:06.958Z,4.85
2022-09-23T18:06:36.687Z,5.20
2022-09-23T18:09:05.477Z,4.45
2022-09-23T18:11:34.337Z,4.90
2022-09-23T18:14:03.231Z,4.15
2022-09-23T18:16:34.537Z,5.53
2022-09-23T18:19:03.775Z,5.05
2022-09-23T18:21:35.205Z,4.50
2022-09-23T18:24:21.699Z,4.80
2022-09-23T18:26:51.223Z,3.78
2022-09-23T18:29:21.890Z,4.75
2022-09-23T18:31:51.523Z,3.85
2022-09-23T18:34:20.520Z,3.60
2022-09-23T18:36:48.349Z,3.80
2022-09-23T18:39:16.145Z,3.75
2022-09-23T18:41:43.904Z,3.28
2022-09-23T18:44:12.286Z,3.97
2022-09-23T18:46:40.004Z,3.60
2022-09-23T18:49:27.397Z,3.60
2022-09-23T18:51:56.255Z,3.85
2022-09-23T18:54:24.861Z,2.72
2022-09-23T18:56:55.423Z,2.80
2022-09-23T18:59:26.034Z,2.65
2022-09-23T19:01:55.698Z,3.13
2022-09-23T19:04:25.809Z,3.17
2022-09-23T19:06:54.315Z,3.75
2022-09-23T19:09:22.082Z,2.80
2022-09-23T19:11:52.910Z,2.92
2022-09-23T19:14:21.198Z,3.40
2022-09-23T19:16:50.778Z,3.00
2022-09-23T19:19:18.710Z,3.78
2022-09-23T19:21:48.886Z,3.22
2022-09-23T19:24:20.214Z,3.30
2022-09-23T19:26:48.626Z,3.35
2022-09-23T19:29:17.180Z,4.03
2022-09-23T19:31:45.184Z,3.75
2022-09-23T19:34:14.084Z,3.67
2022-09-23T19:36:42.969Z,3.60
2022-09-23T19:39:16.411Z,3.50
2022-09-23T19:41:44.322Z,3.63
2022-09-23T19:44:12.332Z,3.40
2022-09-23T19:46:40.904Z,4.30
2022-09-23T19:49:08.944Z,3.50
2022-09-23T19:51:36.856Z,3.70
2022-09-23T19:54:07.359Z,3.80
2022-09-23T19:56:36.822Z,3.20
2022-09-23T19:59:06.925Z,3.22
2022-09-23T20:01:35.279Z,3.20
2022-09-23T20:04:03.459Z,3.00
2022-09-23T20:06:31.665Z,3.45
2022-09-23T20:08:59.687Z,3.60
2022-09-23T20:11:28.609Z,3.47
2022-09-23T20:14:01.087Z,3.35
2022-09-23T20:16:30.348Z,3.40
2022-09-23T20:18:59.760Z,3.63
2022-09-23T20:21:28.317Z,3.88
2022-09-23T20:23:56.152Z,3.65
2022-09-23T20:26:41.313Z,3.80
2022-09-23T20:29:11.282Z,3.35
2022-09-23T20:31:40.450Z,3.30
2022-09-23T20:34:08.473Z,3.67
2022-09-23T20:36:36.459Z,5.10
2022-09-23T20:39:08.244Z,4.40
2022-09-23T20:41:37.763Z,3.53
2022-09-23T20:44:07.474Z,4.53
2022-09-23T20:46:37.035Z,3.90
2022-09-23T20:49:08.826Z,3.47
2022-09-23T20:51:36.537Z,4.63
2022-09-23T20:54:04.396Z,3.95
2022-09-23T20:56:32.479Z,3.40
2022-09-23T20:59:00.737Z,5.32
2022-09-23T21:01:28.627Z,3.75
2022-09-23T21:03:57.601Z,4.50
2022-09-23T21:06:26.198Z,4.45
2022-09-23T21:08:54.774Z,3.72
2022-09-23T21:11:23.003Z,3.95
2022-09-23T21:13:51.522Z,4.30
2022-09-23T21:16:22.961Z,3.38
2022-09-23T21:18:51.667Z,4.13
2022-09-23T21:21:22.430Z,4.40
2022-09-23T21:23:50.585Z,3.65
2022-09-23T21:26:19.852Z,3.85
2022-09-23T21:28:48.754Z,3.70
2022-09-23T21:31:23.591Z,4.82
2022-09-23T21:33:55.041Z,4.32
2022-09-23T21:36:27.475Z,3.70
2022-09-23T21:38:56.115Z,4.47
2022-09-23T21:41:24.315Z,4.20
2022-09-23T21:43:53.222Z,4.75
2022-09-23T21:46:21.542Z,4.40
2022-09-23T21:48:51.993Z,4.75
2022-09-23T21:51:20.701Z,4.57
2022-09-23T21:53:53.485Z,4.07
2022-09-23T21:56:22.143Z,3.95
2022-09-23T21:58:52.224Z,4.63
2022-09-23T22:01:22.568Z,5.05
2022-09-23T22:03:52.359Z,5.00
2022-09-23T22:06:21.670Z,4.40
2022-09-23T22:08:54.762Z,4.35
2022-09-23T22:11:40.339Z,5.32
2022-09-23T22:14:09.047Z,4.07
2022-09-23T22:16:37.177Z,4.53
2022-09-23T22:19:07.079Z,4.63
2022-09-23T22:21:35.645Z,4.35
2022-09-23T22:24:05.737Z,4.57
2022-09-23T22:26:34.506Z,4.82
2022-09-23T22:29:19.452Z,4.57
2022-09-23T22:32:14.124Z,4.80
2022-09-23T22:34:51.600Z,4.78
2022-09-23T22:37:20.808Z,5.03
2022-09-23T22:39:50.049Z,4.63
2022-09-23T22:42:18.308Z,5.10
2022-09-23T22:44:46.062Z,4.90
2022-09-23T22:47:13.690Z,4.80
2022-09-23T22:49:42.178Z,5.00
2022-09-23T22:52:12.535Z,5.03
2022-09-23T22:54:40.520Z,5.38
2022-09-23T22:57:10.134Z,4.97
2022-09-23T22:59:38.383Z,5.13
2022-09-23T23:02:06.676Z,5.43
2022-09-23T23:04:36.571Z,4.82
2022-09-23T23:07:06.091Z,5.47
2022-09-23T23:09:33.730Z,5.18
2022-09-23T23:12:02.643Z,5.10
2022-09-23T23:14:31.681Z,4.93
2022-09-23T23:16:59.492Z,5.18
2022-09-23T23:19:27.174Z,6.18
2022-09-23T23:21:54.800Z,4.60
2022-09-23T23:24:23.439Z,5.18
2022-09-23T23:26:51.412Z,5.13
2022-09-23T23:29:20.068Z,5.55
2022-09-23T23:31:49.314Z,4.78
2022-09-23T23:34:17.587Z,5.55
2022-09-23T23:36:45.907Z,5.30
2022-09-23T23:39:14.095Z,5.03
2022-09-23T23:41:42.566Z,4.85
2022-09-23T23:44:10.367Z,5.50
2022-09-23T23:46:38.169Z,5.20
2022-09-23T23:49:07.386Z,6.18
2022-09-23T23:51:35.046Z,5.35
2022-09-23T23:54:02.692Z,6.35
2022-09-23T23:56:31.327Z,5.05
2022-09-23T23:58:59.660Z,5.50
